createdAt,value
2023-02-27T00:00:11.307Z,0
2023-02-27T00:01:11.304Z,0
2023-02-27T00:02:11.303Z,0
2023-02-27T00:03:11.328Z,0
2023-02-27T00:04:11.391Z,0
2023-02-27T00:05:11.321Z,0
2023-02-27T00:06:11.306Z,0
2023-02-27T00:07:11.299Z,0
2023-02-27T00:08:11.321Z,0
2023-02-27T00:09:11.327Z,0
2023-02-27T00:10:11.308Z,0
2023-02-27T00:11:11.305Z,0
2023-02-27T00:12:11.308Z,0
2023-02-27T00:13:11.312Z,0
2023-02-27T00:14:11.308Z,0
2023-02-27T00:15:11.316Z,0
2023-02-27T00:16:12.936Z,0
2023-02-27T00:17:11.301Z,0
2023-02-27T00:18:11.324Z,0
2023-02-27T00:19:11.301Z,0
2023-02-27T00:20:11.343Z,0
2023-02-27T00:21:11.311Z,0
2023-02-27T00:22:11.305Z,0
2023-02-27T00:23:11.331Z,0
2023-02-27T00:24:11.310Z,0
2023-02-27T00:25:11.313Z,0
2023-02-27T00:26:11.319Z,0
2023-02-27T00:27:11.307Z,0
2023-02-27T00:28:11.314Z,0
2023-02-27T00:29:11.302Z,0
2023-02-27T00:30:11.309Z,0
2023-02-27T00:31:11.377Z,0
2023-02-27T00:32:11.355Z,0
2023-02-27T00:33:11.313Z,0
2023-02-27T00:34:11.297Z,0
2023-02-27T00:35:11.313Z,0
2023-02-27T00:36:11.312Z,0
2023-02-27T00:37:11.305Z,0
2023-02-27T00:38:11.313Z,0
2023-02-27T00:39:11.304Z,0
2023-02-27T00:40:11.298Z,0
2023-02-27T00:41:11.297Z,0
2023-02-27T00:42:11.306Z,0
2023-02-27T00:43:11.316Z,0
2023-02-27T00:44:11.302Z,0
2023-02-27T00:45:11.304Z,0
2023-02-27T00:46:11.334Z,0
2023-02-27T00:47:11.303Z,0
2023-02-27T00:48:11.325Z,0
2023-02-27T00:49:11.297Z,0
2023-02-27T00:50:11.311Z,0
2023-02-27T00:51:11.308Z,0
2023-02-27T00:52:11.301Z,0
2023-02-27T00:53:11.329Z,0
2023-02-27T00:54:11.324Z,0
2023-02-27T00:55:11.306Z,0
2023-02-27T00:56:11.302Z,0
2023-02-27T00:57:11.321Z,0
2023-02-27T00:58:11.311Z,0
2023-02-27T00:59:11.301Z,0
2023-02-27T01:00:11.299Z,0
2023-02-27T01:01:11.320Z,0
2023-02-27T01:02:11.318Z,0
2023-02-27T01:03:11.316Z,0
2023-02-27T01:04:11.317Z,0
2023-02-27T01:05:11.308Z,0
2023-02-27T01:06:11.317Z,0
2023-02-27T01:07:11.303Z,0
2023-02-27T01:08:11.314Z,0
2023-02-27T01:09:11.303Z,0
2023-02-27T01:10:11.315Z,0
2023-02-27T01:11:11.310Z,0
2023-02-27T01:12:11.308Z,0
2023-02-27T01:13:11.448Z,0
2023-02-27T01:14:11.305Z,0
2023-02-27T01:15:11.336Z,0
2023-02-27T01:16:11.348Z,0
2023-02-27T01:17:11.301Z,0
2023-02-27T01:18:11.323Z,0
2023-02-27T01:19:11.315Z,0
2023-02-27T01:20:11.300Z,0
2023-02-27T01:21:11.312Z,0
2023-02-27T01:22:11.315Z,0
2023-02-27T01:23:11.314Z,0
2023-02-27T01:24:11.320Z,0
2023-02-27T01:25:11.320Z,0
2023-02-27T01:26:11.312Z,0
2023-02-27T01:27:11.320Z,0
2023-02-27T01:28:11.322Z,0
2023-02-27T01:29:11.305Z,0
2023-02-27T01:30:11.315Z,0
2023-02-27T01:31:11.313Z,0
2023-02-27T01:32:11.413Z,0
2023-02-27T01:33:11.329Z,0
2023-02-27T01:34:11.318Z,0
2023-02-27T01:35:11.335Z,0
2023-02-27T01:36:11.325Z,0
2023-02-27T01:37:11.304Z,0
2023-02-27T01:38:11.329Z,0
2023-02-27T01:39:11.317Z,0
2023-02-27T01:40:11.318Z,0
2023-02-27T01:41:11.305Z,0
2023-02-27T01:42:13.112Z,0
2023-02-27T01:43:11.325Z,0
2023-02-27T01:44:11.308Z,0
2023-02-27T01:45:11.313Z,0
2023-02-27T01:46:11.368Z,0
2023-02-27T01:47:11.311Z,0
2023-02-27T01:48:11.322Z,0
2023-02-27T01:49:11.326Z,0
2023-02-27T01:50:11.316Z,0
2023-02-27T01:51:11.313Z,0
2023-02-27T01:52:11.309Z,0
2023-02-27T01:53:11.335Z,0
2023-02-27T01:54:11.327Z,0
2023-02-27T01:55:11.303Z,0
2023-02-27T01:56:11.319Z,0
2023-02-27T01:57:11.308Z,0
2023-02-27T01:58:11.317Z,0
2023-02-27T01:59:11.303Z,0
2023-02-27T02:00:11.297Z,0
2023-02-27T02:01:11.336Z,0
2023-02-27T02:02:11.356Z,0
2023-02-27T02:03:11.328Z,0
2023-02-27T02:04:11.319Z,0
2023-02-27T02:05:11.323Z,0
2023-02-27T02:06:11.310Z,0
2023-02-27T02:07:11.301Z,0
2023-02-27T02:08:11.318Z,0
2023-02-27T02:09:11.317Z,0
2023-02-27T02:10:11.299Z,0
2023-02-27T02:11:11.306Z,0
2023-02-27T02:12:11.314Z,0
2023-02-27T02:13:11.369Z,0
2023-02-27T02:14:11.317Z,0
2023-02-27T02:15:11.315Z,0
2023-02-27T02:16:11.321Z,0
2023-02-27T02:17:11.309Z,0
2023-02-27T02:18:11.383Z,0
2023-02-27T02:19:11.314Z,0
2023-02-27T02:20:11.302Z,0
2023-02-27T02:21:11.327Z,0
2023-02-27T02:22:11.305Z,0
2023-02-27T02:23:11.311Z,0
2023-02-27T02:24:11.318Z,0
2023-02-27T02:25:11.309Z,0
2023-02-27T02:26:11.313Z,0
2023-02-27T02:27:11.305Z,0
2023-02-27T02:28:11.322Z,0
2023-02-27T02:29:11.301Z,0
2023-02-27T02:30:11.310Z,0
2023-02-27T02:31:11.446Z,0
2023-02-27T02:32:11.333Z,0
2023-02-27T02:33:11.356Z,0
2023-02-27T02:34:11.301Z,0
2023-02-27T02:35:11.313Z,0
2023-02-27T02:36:11.309Z,0
2023-02-27T02:37:11.309Z,0
2023-02-27T02:38:11.334Z,0
2023-02-27T02:39:11.312Z,0
2023-02-27T02:40:11.322Z,0
2023-02-27T02:41:11.304Z,0
2023-02-27T02:42:11.314Z,0
2023-02-27T02:43:11.317Z,0
2023-02-27T02:44:11.320Z,0
2023-02-27T02:45:11.328Z,0
2023-02-27T02:46:11.345Z,0
2023-02-27T02:47:11.304Z,0
2023-02-27T02:48:11.320Z,0
2023-02-27T02:49:11.308Z,0
2023-02-27T02:50:11.309Z,0
2023-02-27T02:51:11.310Z,0
2023-02-27T02:52:11.304Z,0
2023-02-27T02:53:11.328Z,0
2023-02-27T02:54:11.326Z,0
2023-02-27T02:55:11.306Z,0
2023-02-27T02:56:11.302Z,0
2023-02-27T02:57:11.322Z,0
2023-02-27T02:58:11.319Z,0
2023-02-27T02:59:11.310Z,0
2023-02-27T03:00:11.310Z,0
2023-02-27T03:01:11.358Z,0
2023-02-27T03:02:11.336Z,0
2023-02-27T03:03:11.323Z,0
2023-02-27T03:04:11.339Z,0
2023-02-27T03:05:11.343Z,0
2023-02-27T03:06:11.315Z,0
2023-02-27T03:07:11.323Z,0
2023-02-27T03:08:11.329Z,0
2023-02-27T03:09:11.345Z,0
2023-02-27T03:10:11.312Z,0
2023-02-27T03:11:11.324Z,0
2023-02-27T03:12:11.316Z,0
2023-02-27T03:13:11.321Z,0
2023-02-27T03:14:11.319Z,0
2023-02-27T03:15:11.321Z,0
2023-02-27T03:16:11.350Z,0
2023-02-27T03:17:11.326Z,0
2023-02-27T03:18:11.330Z,0
2023-02-27T03:19:11.317Z,0
2023-02-27T03:20:11.320Z,0
2023-02-27T03:21:11.322Z,0
2023-02-27T03:22:11.324Z,0
2023-02-27T03:23:11.328Z,0
2023-02-27T03:24:11.309Z,0
2023-02-27T03:25:11.319Z,0
2023-02-27T03:26:11.318Z,0
2023-02-27T03:27:11.312Z,0
2023-02-27T03:28:11.331Z,0
2023-02-27T03:29:11.311Z,0
2023-02-27T03:30:11.329Z,0
2023-02-27T03:31:11.381Z,0
2023-02-27T03:32:11.385Z,0
2023-02-27T03:33:11.334Z,0
2023-02-27T03:34:11.304Z,0
2023-02-27T03:35:11.316Z,0
2023-02-27T03:36:11.314Z,0
2023-02-27T03:37:11.302Z,0
2023-02-27T03:38:11.333Z,0
2023-02-27T03:39:11.323Z,0
2023-02-27T03:40:11.325Z,0
2023-02-27T03:41:11.317Z,0
2023-02-27T03:42:11.323Z,0
2023-02-27T03:43:11.322Z,0
2023-02-27T03:44:11.299Z,0
2023-02-27T03:45:11.322Z,0
2023-02-27T03:46:11.423Z,0
2023-02-27T03:47:11.304Z,0
2023-02-27T03:48:11.333Z,0
2023-02-27T03:49:11.311Z,0
2023-02-27T03:50:11.310Z,0
2023-02-27T03:51:11.310Z,0
2023-02-27T03:52:11.312Z,0
2023-02-27T03:53:11.332Z,0
2023-02-27T03:54:11.306Z,0
2023-02-27T03:55:11.312Z,0
2023-02-27T03:56:11.313Z,0
2023-02-27T03:57:11.318Z,0
2023-02-27T03:58:11.320Z,0
2023-02-27T03:59:11.327Z,0
2023-02-27T04:00:11.337Z,0
2023-02-27T04:01:11.311Z,0
2023-02-27T04:02:11.362Z,0
2023-02-27T04:03:11.320Z,0
2023-02-27T04:04:11.312Z,0
2023-02-27T04:05:11.309Z,0
2023-02-27T04:06:11.309Z,0
2023-02-27T04:07:11.300Z,0
2023-02-27T04:08:11.321Z,0
2023-02-27T04:09:11.308Z,0
2023-02-27T04:10:11.309Z,0
2023-02-27T04:11:11.302Z,0
2023-02-27T04:12:11.314Z,0
2023-02-27T04:13:11.328Z,0
2023-02-27T04:14:11.317Z,0
2023-02-27T04:15:11.314Z,0
2023-02-27T04:16:11.371Z,0
2023-02-27T04:17:11.308Z,0
2023-02-27T04:18:11.320Z,0
2023-02-27T04:19:11.313Z,0
2023-02-27T04:20:11.307Z,0
2023-02-27T04:21:11.332Z,0
2023-02-27T04:22:11.312Z,0
2023-02-27T04:23:11.319Z,0
2023-02-27T04:24:11.313Z,0
2023-02-27T04:25:11.321Z,0
2023-02-27T04:26:11.300Z,0
2023-02-27T04:27:11.316Z,0
2023-02-27T04:28:11.325Z,0
2023-02-27T04:29:11.311Z,0
2023-02-27T04:30:11.329Z,0
2023-02-27T04:31:11.390Z,0
2023-02-27T04:32:11.427Z,0
2023-02-27T04:33:11.329Z,0
2023-02-27T04:34:11.319Z,0
2023-02-27T04:35:11.305Z,0
2023-02-27T04:36:13.043Z,0
2023-02-27T04:37:11.329Z,0
2023-02-27T04:38:11.324Z,0
2023-02-27T04:39:11.314Z,0
2023-02-27T04:40:11.314Z,0
2023-02-27T04:41:11.311Z,0
2023-02-27T04:42:11.336Z,0
2023-02-27T04:43:11.335Z,0
2023-02-27T04:44:11.331Z,0
2023-02-27T04:45:13.160Z,0
2023-02-27T04:46:11.322Z,0
2023-02-27T04:47:11.316Z,0
2023-02-27T04:48:11.346Z,0
2023-02-27T04:49:11.317Z,0
2023-02-27T04:50:11.320Z,0
2023-02-27T04:51:11.498Z,0
2023-02-27T04:52:11.322Z,0
2023-02-27T04:53:11.467Z,0
2023-02-27T04:54:11.319Z,0
2023-02-27T04:55:11.327Z,0
2023-02-27T04:56:11.318Z,0
2023-02-27T04:57:11.325Z,0
2023-02-27T04:58:11.326Z,0
2023-02-27T04:59:11.316Z,0
2023-02-27T05:00:11.300Z,0
2023-02-27T05:01:11.325Z,0
2023-02-27T05:02:11.392Z,0
2023-02-27T05:03:11.327Z,0
2023-02-27T05:04:11.321Z,0
2023-02-27T05:05:11.311Z,0
2023-02-27T05:06:11.308Z,0
2023-02-27T05:07:11.317Z,0
2023-02-27T05:08:11.325Z,0
2023-02-27T05:09:11.310Z,0
2023-02-27T05:10:11.311Z,0
2023-02-27T05:11:11.311Z,0
2023-02-27T05:12:11.323Z,0
2023-02-27T05:13:11.338Z,0
2023-02-27T05:14:11.312Z,0
2023-02-27T05:15:11.321Z,0
2023-02-27T05:16:11.337Z,0
2023-02-27T05:17:11.298Z,0
2023-02-27T05:18:11.419Z,0
2023-02-27T05:19:11.312Z,0
2023-02-27T05:20:11.302Z,0
2023-02-27T05:21:11.318Z,0
2023-02-27T05:22:11.321Z,0
2023-02-27T05:23:11.320Z,0
2023-02-27T05:24:11.314Z,0
2023-02-27T05:25:11.312Z,0
2023-02-27T05:26:11.309Z,0
2023-02-27T05:27:11.311Z,0
2023-02-27T05:28:11.319Z,0
2023-02-27T05:29:11.315Z,0
2023-02-27T05:30:11.299Z,0
2023-02-27T05:31:11.317Z,0
2023-02-27T05:32:11.375Z,0
2023-02-27T05:33:11.329Z,0
2023-02-27T05:34:11.328Z,0
2023-02-27T05:35:11.319Z,0
2023-02-27T05:36:11.351Z,0
2023-02-27T05:37:11.319Z,0.01
2023-02-27T05:38:11.330Z,0.01
2023-02-27T05:39:11.316Z,0.01
2023-02-27T05:40:11.304Z,0.01
2023-02-27T05:41:11.313Z,0.01
2023-02-27T05:42:11.305Z,0.02
2023-02-27T05:43:11.321Z,0.02
2023-02-27T05:44:11.323Z,0.02
2023-02-27T05:45:11.312Z,0.02
2023-02-27T05:46:11.323Z,0.03
2023-02-27T05:47:11.324Z,0.03
2023-02-27T05:48:11.319Z,0.04
2023-02-27T05:49:11.310Z,0.04
2023-02-27T05:50:11.304Z,0.05
2023-02-27T05:51:11.313Z,0.05
2023-02-27T05:52:11.310Z,0.06
2023-02-27T05:53:11.322Z,0.06
2023-02-27T05:54:11.314Z,0.07
2023-02-27T05:55:11.312Z,0.07
2023-02-27T05:56:11.312Z,0.08
2023-02-27T05:57:11.307Z,0.09
2023-02-27T05:58:11.342Z,0.1
2023-02-27T05:59:11.316Z,0.1
2023-02-27T06:00:11.304Z,0.11
2023-02-27T06:01:11.322Z,0.12
2023-02-27T06:02:11.355Z,0.13
2023-02-27T06:03:11.453Z,0.14
2023-02-27T06:04:11.307Z,0.15
2023-02-27T06:05:11.316Z,0.15
2023-02-27T06:06:11.314Z,0.16
2023-02-27T06:07:11.313Z,0.17
2023-02-27T06:08:11.325Z,0.17
2023-02-27T06:09:11.320Z,0.25
2023-02-27T06:10:11.313Z,0.24
2023-02-27T06:11:11.321Z,0.25
2023-02-27T06:12:11.341Z,0.27
2023-02-27T06:13:11.322Z,0.25
2023-02-27T06:14:11.312Z,0.26
2023-02-27T06:15:11.314Z,0.3
2023-02-27T06:16:11.317Z,0.34
2023-02-27T06:17:11.313Z,0.37
2023-02-27T06:18:11.335Z,0.38
2023-02-27T06:19:11.315Z,0.33
2023-02-27T06:20:11.323Z,0.4
2023-02-27T06:21:11.319Z,0.61
2023-02-27T06:22:11.326Z,0.48
2023-02-27T06:23:11.334Z,0.73
2023-02-27T06:24:11.323Z,0.75
2023-02-27T06:25:11.309Z,0.8
2023-02-27T06:26:11.316Z,0.86
2023-02-27T06:27:11.323Z,0.91
2023-02-27T06:28:11.337Z,1.01
2023-02-27T06:29:11.313Z,1.05
2023-02-27T06:30:11.310Z,1.06
2023-02-27T06:31:11.346Z,1.09
2023-02-27T06:32:11.355Z,1.07
2023-02-27T06:33:11.327Z,1.13
2023-02-27T06:34:11.308Z,1.26
2023-02-27T06:35:11.320Z,1.29
2023-02-27T06:36:11.341Z,1.3
2023-02-27T06:37:11.319Z,1.38
2023-02-27T06:38:11.323Z,1.2
2023-02-27T06:39:11.305Z,1.36
2023-02-27T06:40:11.312Z,1.27
2023-02-27T06:41:11.316Z,1.2
2023-02-27T06:42:11.315Z,1.43
2023-02-27T06:43:11.330Z,1.57
2023-02-27T06:44:11.316Z,1.25
2023-02-27T06:45:11.313Z,1.6
2023-02-27T06:46:11.360Z,1.57
2023-02-27T06:47:11.308Z,1.7
2023-02-27T06:48:11.327Z,1.99
2023-02-27T06:49:11.305Z,1.93
2023-02-27T06:50:11.338Z,1.71
2023-02-27T06:51:11.318Z,1.57
2023-02-27T06:52:11.311Z,1.72
2023-02-27T06:53:11.319Z,2.01
2023-02-27T06:54:11.304Z,2.08
2023-02-27T06:55:11.321Z,2.16
2023-02-27T06:56:11.306Z,1.82
2023-02-27T06:57:11.304Z,2.16
2023-02-27T06:58:11.322Z,2.37
2023-02-27T06:59:11.310Z,2.08
2023-02-27T07:00:11.305Z,1.9
2023-02-27T07:01:11.390Z,1.99
2023-02-27T07:02:11.311Z,0.8
2023-02-27T07:03:11.325Z,0.9
2023-02-27T07:04:11.296Z,1.08
2023-02-27T07:05:11.311Z,1.35
2023-02-27T07:06:11.309Z,3.44
2023-02-27T07:07:34.109Z,3.44
2023-02-27T07:08:11.324Z,1.36
2023-02-27T07:09:11.317Z,1.2
2023-02-27T07:10:11.312Z,1.42
2023-02-27T07:11:11.310Z,1.4
2023-02-27T07:12:11.304Z,1.52
2023-02-27T07:13:11.320Z,1.82
2023-02-27T07:14:11.314Z,2.92
2023-02-27T07:15:11.311Z,3.22
2023-02-27T07:16:11.311Z,3.35
2023-02-27T07:17:11.322Z,3.16
2023-02-27T07:18:11.334Z,3.83
2023-02-27T07:19:11.306Z,2.67
2023-02-27T07:20:11.314Z,2.71
2023-02-27T07:21:11.303Z,3.71
2023-02-27T07:22:11.332Z,4.01
2023-02-27T07:23:11.324Z,3.36
2023-02-27T07:24:11.320Z,3.69
2023-02-27T07:25:11.308Z,2.34
2023-02-27T07:26:11.315Z,1.93
2023-02-27T07:27:11.307Z,2.45
2023-02-27T07:28:11.373Z,2.54
2023-02-27T07:29:11.311Z,3.49
2023-02-27T07:30:11.307Z,4.55
2023-02-27T07:31:11.359Z,4.52
2023-02-27T07:32:11.490Z,4.27
2023-02-27T07:33:11.329Z,2.96
2023-02-27T07:34:11.311Z,2.37
2023-02-27T07:35:11.323Z,2.75
2023-02-27T07:36:11.314Z,2.77
2023-02-27T07:37:11.315Z,2.16
2023-02-27T07:38:11.318Z,1.95
2023-02-27T07:39:11.309Z,1.88
2023-02-27T07:40:11.305Z,1.88
2023-02-27T07:41:21.228Z,1.98
2023-02-27T07:42:11.313Z,2
2023-02-27T07:43:11.321Z,2.15
2023-02-27T07:44:11.314Z,2.26
2023-02-27T07:45:11.319Z,2.26
2023-02-27T07:46:11.333Z,2.09
2023-02-27T07:47:11.313Z,2.17
2023-02-27T07:48:11.327Z,2.26
2023-02-27T07:49:11.310Z,2.43
2023-02-27T07:50:11.312Z,2.89
2023-02-27T07:51:11.316Z,2.17
2023-02-27T07:52:11.310Z,2.15
2023-02-27T07:53:11.345Z,2.16
2023-02-27T07:54:11.317Z,2.28
2023-02-27T07:55:11.323Z,2.29
2023-02-27T07:56:11.311Z,2.33
2023-02-27T07:57:11.328Z,2.37
2023-02-27T07:58:11.330Z,2.37
2023-02-27T07:59:11.324Z,2.83
2023-02-27T08:00:11.321Z,2.62
2023-02-27T08:01:11.313Z,2.77
2023-02-27T08:02:11.323Z,2.74
2023-02-27T08:03:11.324Z,2.94
2023-02-27T08:04:11.345Z,2.67
2023-02-27T08:05:11.327Z,2.57
2023-02-27T08:06:11.315Z,2.45
2023-02-27T08:07:11.322Z,2.45
2023-02-27T08:08:11.336Z,2.41
2023-02-27T08:09:11.327Z,2.29
2023-02-27T08:10:11.309Z,4.01
2023-02-27T08:11:11.312Z,2.73
2023-02-27T08:12:11.320Z,2.91
2023-02-27T08:13:11.335Z,3.64
2023-02-27T08:14:11.322Z,2.96
2023-02-27T08:15:11.317Z,2.65
2023-02-27T08:16:11.410Z,2.35
2023-02-27T08:17:11.325Z,2.46
2023-02-27T08:18:11.329Z,2.91
2023-02-27T08:19:11.348Z,3.16
2023-02-27T08:20:11.368Z,5.31
2023-02-27T08:21:11.313Z,3.55
2023-02-27T08:22:11.319Z,4.02
2023-02-27T08:23:11.339Z,2.97
2023-02-27T08:24:11.324Z,3.37
2023-02-27T08:25:11.347Z,3.13
2023-02-27T08:26:11.318Z,2.94
2023-02-27T08:27:11.315Z,2.9
2023-02-27T08:28:11.336Z,3.52
2023-02-27T08:29:11.313Z,4.09
2023-02-27T08:30:11.308Z,5.58
2023-02-27T08:31:11.346Z,4.15
2023-02-27T08:32:11.378Z,4.61
2023-02-27T08:33:11.324Z,4.13
2023-02-27T08:34:11.947Z,6.56
2023-02-27T08:35:11.316Z,5.74
2023-02-27T08:36:11.371Z,6.59
2023-02-27T08:37:11.312Z,6.39
2023-02-27T08:38:11.337Z,6.16
2023-02-27T08:39:11.315Z,4.33
2023-02-27T08:40:11.319Z,7.29
2023-02-27T08:41:11.316Z,7.6
2023-02-27T08:42:11.317Z,6.42
2023-02-27T08:43:11.319Z,6.24
2023-02-27T08:44:11.375Z,5.95
2023-02-27T08:45:11.328Z,6.28
2023-02-27T08:46:11.365Z,7.13
2023-02-27T08:47:11.318Z,6.88
2023-02-27T08:48:11.322Z,7.43
2023-02-27T08:49:11.309Z,6.4
2023-02-27T08:50:11.320Z,5
2023-02-27T08:51:11.304Z,5.52
2023-02-27T08:52:11.310Z,5.16
2023-02-27T08:53:11.338Z,7.74
2023-02-27T08:54:11.317Z,8.28
2023-02-27T08:55:11.314Z,5.45
2023-02-27T08:56:11.315Z,4.92
2023-02-27T08:57:11.310Z,5.71
2023-02-27T08:58:11.353Z,5.42
2023-02-27T08:59:11.314Z,4.43
2023-02-27T09:00:11.344Z,4.61
2023-02-27T09:01:11.443Z,4.38
2023-02-27T09:02:11.551Z,5.56
2023-02-27T09:03:11.365Z,4.51
2023-02-27T09:04:11.313Z,4.3
2023-02-27T09:05:11.313Z,5.14
2023-02-27T09:06:11.306Z,4.22
2023-02-27T09:07:11.311Z,4.22
2023-02-27T09:08:11.325Z,3.97
2023-02-27T09:09:11.303Z,4.12
2023-02-27T09:10:11.319Z,4.26
2023-02-27T09:11:11.335Z,4.11
2023-02-27T09:12:11.330Z,4.09
2023-02-27T09:13:11.330Z,4.11
2023-02-27T09:14:11.313Z,3.95
2023-02-27T09:15:11.331Z,4.01
2023-02-27T09:16:11.363Z,3.82
2023-02-27T09:17:11.316Z,3.9
2023-02-27T09:18:11.337Z,4
2023-02-27T09:19:11.310Z,4.14
2023-02-27T09:20:11.312Z,4.43
2023-02-27T09:21:11.314Z,5.41
2023-02-27T09:22:11.308Z,5.48
2023-02-27T09:23:11.323Z,4.89
2023-02-27T09:24:19.710Z,4.45
2023-02-27T09:25:11.375Z,4.41
2023-02-27T09:26:11.345Z,4.31
2023-02-27T09:27:11.305Z,4.65
2023-02-27T09:28:11.326Z,4.43
2023-02-27T09:29:11.314Z,4.44
2023-02-27T09:30:11.318Z,4.4
2023-02-27T09:31:11.322Z,4.81
2023-02-27T09:32:11.435Z,4.39
2023-02-27T09:33:11.354Z,4.8
2023-02-27T09:34:11.316Z,4.5
2023-02-27T09:35:11.320Z,4.47
2023-02-27T09:36:11.317Z,4.42
2023-02-27T09:37:11.312Z,4.42
2023-02-27T09:38:11.317Z,4.19
2023-02-27T09:39:11.312Z,3.94
2023-02-27T09:40:11.317Z,3.89
2023-02-27T09:41:11.327Z,4.39
2023-02-27T09:42:11.322Z,8.26
2023-02-27T09:43:11.396Z,8.26
2023-02-27T09:44:11.362Z,9.99
2023-02-27T09:45:11.310Z,12.57
2023-02-27T09:46:11.419Z,12.43
2023-02-27T09:47:11.317Z,11.43
2023-02-27T09:48:11.328Z,7.66
2023-02-27T09:49:11.317Z,12.43
2023-02-27T09:50:11.306Z,10.1
2023-02-27T09:51:11.313Z,11.63
2023-02-27T09:52:11.312Z,11.16
2023-02-27T09:53:11.332Z,9.57
2023-02-27T09:54:11.320Z,8.25
2023-02-27T09:55:11.313Z,10.61
2023-02-27T09:56:11.311Z,8.03
2023-02-27T09:57:11.317Z,5.8
2023-02-27T09:58:11.332Z,6.82
2023-02-27T09:59:11.322Z,8.92
2023-02-27T10:00:11.319Z,7.84
2023-02-27T10:01:11.305Z,6.09
2023-02-27T10:02:11.372Z,7.57
2023-02-27T10:03:11.391Z,6.58
2023-02-27T10:04:11.380Z,8.01
2023-02-27T10:05:11.309Z,5.96
2023-02-27T10:06:11.312Z,6.23
2023-02-27T10:07:11.324Z,6.23
2023-02-27T10:08:11.327Z,6.04
2023-02-27T10:09:11.318Z,5.78
2023-02-27T10:10:11.328Z,5.41
2023-02-27T10:11:11.319Z,5.87
2023-02-27T10:12:11.323Z,6.21
2023-02-27T10:13:11.321Z,6.18
2023-02-27T10:14:11.317Z,5.49
2023-02-27T10:15:11.320Z,7.11
2023-02-27T10:16:11.327Z,6.13
2023-02-27T10:17:11.314Z,7.38
2023-02-27T10:18:25.451Z,11.95
2023-02-27T10:19:11.321Z,8.66
2023-02-27T10:20:11.350Z,9.81
2023-02-27T10:21:11.320Z,8.97
2023-02-27T10:22:11.319Z,13.23
2023-02-27T10:23:11.328Z,12.72
2023-02-27T10:24:11.317Z,10.98
2023-02-27T10:25:28.457Z,13.85
2023-02-27T10:26:11.314Z,6.82
2023-02-27T10:27:11.320Z,14.35
2023-02-27T10:28:11.349Z,5.27
2023-02-27T10:29:11.320Z,9.49
2023-02-27T10:30:17.304Z,15.06
2023-02-27T10:31:11.467Z,8.58
2023-02-27T10:32:11.326Z,7.1
2023-02-27T10:33:11.338Z,7.09
2023-02-27T10:34:11.324Z,6.29
2023-02-27T10:35:11.323Z,5.92
2023-02-27T10:36:20.655Z,6.43
2023-02-27T10:37:11.323Z,8.61
2023-02-27T10:38:11.327Z,5.83
2023-02-27T10:39:11.324Z,7.16
2023-02-27T10:40:11.316Z,5.63
2023-02-27T10:41:11.321Z,8.87
2023-02-27T10:42:11.319Z,6.87
2023-02-27T10:43:11.329Z,6.22
2023-02-27T10:44:11.324Z,8.29
2023-02-27T10:45:11.317Z,6.16
2023-02-27T10:46:11.385Z,5.34
2023-02-27T10:47:11.318Z,5.68
2023-02-27T10:48:11.378Z,6.15
2023-02-27T10:49:11.325Z,6.67
2023-02-27T10:50:11.325Z,5.97
2023-02-27T10:51:11.318Z,5.68
2023-02-27T10:52:11.323Z,6.82
2023-02-27T10:53:11.333Z,8.68
2023-02-27T10:54:11.324Z,5.65
2023-02-27T10:55:11.321Z,5.51
2023-02-27T10:56:11.316Z,5.44
2023-02-27T10:57:11.309Z,5.18
2023-02-27T10:58:11.323Z,5.68
2023-02-27T10:59:11.317Z,5.04
2023-02-27T11:00:11.318Z,4.28
2023-02-27T11:01:11.398Z,4
2023-02-27T11:02:11.311Z,4.31
2023-02-27T11:03:11.327Z,4.06
2023-02-27T11:04:11.335Z,4.39
2023-02-27T11:05:11.315Z,5.14
2023-02-27T11:06:11.341Z,5.59
2023-02-27T11:07:11.311Z,5.59
2023-02-27T11:08:11.320Z,4.54
2023-02-27T11:09:11.310Z,4.97
2023-02-27T11:10:11.327Z,4.42
2023-02-27T11:11:11.310Z,4.42
2023-02-27T11:12:11.307Z,5.84
2023-02-27T11:13:11.320Z,3.69
2023-02-27T11:14:11.307Z,3.52
2023-02-27T11:15:11.313Z,3.43
2023-02-27T11:16:11.393Z,3.23
2023-02-27T11:17:11.333Z,3.01
2023-02-27T11:18:11.354Z,2.81
2023-02-27T11:19:12.924Z,2.52
2023-02-27T11:20:11.307Z,2.28
2023-02-27T11:21:11.307Z,2.12
2023-02-27T11:22:11.302Z,2.09
2023-02-27T11:23:11.326Z,2.12
2023-02-27T11:24:11.305Z,2.02
2023-02-27T11:25:11.356Z,1.88
2023-02-27T11:26:11.336Z,1.82
2023-02-27T11:27:11.311Z,1.8
2023-02-27T11:28:11.326Z,1.83
2023-02-27T11:29:11.312Z,1.91
2023-02-27T11:30:11.313Z,1.98
2023-02-27T11:31:11.331Z,2
2023-02-27T11:32:11.401Z,2.01
2023-02-27T11:33:11.326Z,2.01
2023-02-27T11:34:11.312Z,1.91
2023-02-27T11:35:11.311Z,1.81
2023-02-27T11:36:11.337Z,1.69
2023-02-27T11:37:11.316Z,1.57
2023-02-27T11:38:11.320Z,1.52
2023-02-27T11:39:11.313Z,1.55
2023-02-27T11:40:11.325Z,1.61
2023-02-27T11:41:11.311Z,1.63
2023-02-27T11:42:11.331Z,1.61
2023-02-27T11:43:11.330Z,1.61
2023-02-27T11:44:11.313Z,1.64
2023-02-27T11:45:11.325Z,1.69
2023-02-27T11:46:46.194Z,1.7
2023-02-27T11:47:11.342Z,1.71
2023-02-27T11:48:11.320Z,1.71
2023-02-27T11:49:11.311Z,1.66
2023-02-27T11:50:11.315Z,1.63
2023-02-27T11:51:11.314Z,1.73
2023-02-27T11:52:11.312Z,1.81
2023-02-27T11:53:11.324Z,1.95
2023-02-27T11:54:11.308Z,2.15
2023-02-27T11:55:11.354Z,2.36
2023-02-27T11:56:11.310Z,2.52
2023-02-27T11:57:11.313Z,2.68
2023-02-27T11:58:11.323Z,2.77
2023-02-27T11:59:11.336Z,2.9
2023-02-27T12:00:11.320Z,3.05
2023-02-27T12:01:11.309Z,3.19
2023-02-27T12:02:11.328Z,3.12
2023-02-27T12:03:11.385Z,3.11
2023-02-27T12:04:11.350Z,3.02
2023-02-27T12:05:11.316Z,3.37
2023-02-27T12:06:11.312Z,4.63
2023-02-27T12:07:11.326Z,4.63
2023-02-27T12:08:11.336Z,3.37
2023-02-27T12:09:11.322Z,3.37
2023-02-27T12:10:11.313Z,3.53
2023-02-27T12:11:14.463Z,3.25
2023-02-27T12:12:11.318Z,3.07
2023-02-27T12:13:11.328Z,2.91
2023-02-27T12:14:11.314Z,2.85
2023-02-27T12:15:11.309Z,2.75
2023-02-27T12:16:11.339Z,2.66
2023-02-27T12:17:11.316Z,2.56
2023-02-27T12:18:11.338Z,2.41
2023-02-27T12:19:11.306Z,2.24
2023-02-27T12:20:11.320Z,2.09
2023-02-27T12:21:11.310Z,1.86
2023-02-27T12:22:11.312Z,1.66
2023-02-27T12:23:11.319Z,1.51
2023-02-27T12:24:11.311Z,1.42
2023-02-27T12:25:11.330Z,1.41
2023-02-27T12:26:11.325Z,1.43
2023-02-27T12:27:11.307Z,1.46
2023-02-27T12:28:11.339Z,1.42
2023-02-27T12:29:11.317Z,1.35
2023-02-27T12:30:11.311Z,1.3
2023-02-27T12:31:11.384Z,1.22
2023-02-27T12:32:11.405Z,1.19
2023-02-27T12:33:11.331Z,1.2
2023-02-27T12:34:11.321Z,1.27
2023-02-27T12:35:11.339Z,1.39
2023-02-27T12:36:11.329Z,1.4
2023-02-27T12:37:11.317Z,1.32
2023-02-27T12:38:11.325Z,1.26
2023-02-27T12:39:11.297Z,1.26
2023-02-27T12:40:11.302Z,1.33
2023-02-27T12:41:11.309Z,1.42
2023-02-27T12:42:11.314Z,1.51
2023-02-27T12:43:11.333Z,1.65
2023-02-27T12:44:11.307Z,1.75
2023-02-27T12:45:11.316Z,1.79
2023-02-27T12:46:11.340Z,1.66
2023-02-27T12:47:11.305Z,1.49
2023-02-27T12:48:11.325Z,1.41
2023-02-27T12:49:11.757Z,1.43
2023-02-27T12:50:11.381Z,1.53
2023-02-27T12:51:11.300Z,1.6
2023-02-27T12:52:11.305Z,1.65
2023-02-27T12:53:11.332Z,1.73
2023-02-27T12:54:11.307Z,1.81
2023-02-27T12:55:11.317Z,1.89
2023-02-27T12:56:11.311Z,1.93
2023-02-27T12:57:11.315Z,1.95
2023-02-27T12:58:11.340Z,1.96
2023-02-27T12:59:11.311Z,1.94
2023-02-27T13:00:11.409Z,1.86
2023-02-27T13:01:11.320Z,1.78
2023-02-27T13:02:11.311Z,1.74
2023-02-27T13:03:11.324Z,1.76
2023-02-27T13:04:11.376Z,1.79
2023-02-27T13:05:11.313Z,1.78
2023-02-27T13:06:11.316Z,1.69
2023-02-27T13:07:11.310Z,1.69
2023-02-27T13:08:11.324Z,1.74
2023-02-27T13:09:11.307Z,1.93
2023-02-27T13:10:11.370Z,2.09
2023-02-27T13:11:11.315Z,2.25
2023-02-27T13:12:11.323Z,2.38
2023-02-27T13:13:11.325Z,2.45
2023-02-27T13:14:11.306Z,2.48
2023-02-27T13:15:11.314Z,2.46
2023-02-27T13:16:11.344Z,2.26
2023-02-27T13:17:11.316Z,2.24
2023-02-27T13:18:11.340Z,2.21
2023-02-27T13:19:11.324Z,2.28
2023-02-27T13:20:11.303Z,2.35
2023-02-27T13:21:11.323Z,2.41
2023-02-27T13:22:11.314Z,2.44
2023-02-27T13:23:11.318Z,2.46
2023-02-27T13:24:11.319Z,2.62
2023-02-27T13:25:11.320Z,2.8
2023-02-27T13:26:11.311Z,2.96
2023-02-27T13:27:11.342Z,5.68
2023-02-27T13:28:11.338Z,3.34
2023-02-27T13:29:11.314Z,4.62
2023-02-27T13:30:11.315Z,3.86
2023-02-27T13:31:11.321Z,5.71
2023-02-27T13:32:11.436Z,8.41
2023-02-27T13:33:11.436Z,8.12
2023-02-27T13:34:11.320Z,7.82
2023-02-27T13:35:11.317Z,5.06
2023-02-27T13:36:11.318Z,4.08
2023-02-27T13:37:11.365Z,3.38
2023-02-27T13:38:11.327Z,8.02
2023-02-27T13:39:11.326Z,5.98
2023-02-27T13:40:11.312Z,2.62
2023-02-27T13:41:11.319Z,2.41
2023-02-27T13:42:11.313Z,2.75
2023-02-27T13:43:11.325Z,5.68
2023-02-27T13:44:11.321Z,2.58
2023-02-27T13:45:11.318Z,6.83
2023-02-27T13:46:11.364Z,5.78
2023-02-27T13:47:11.345Z,4.74
2023-02-27T13:48:11.333Z,4.13
2023-02-27T13:49:19.992Z,4.54
2023-02-27T13:50:11.314Z,3.86
2023-02-27T13:51:11.314Z,3.74
2023-02-27T13:52:11.321Z,3.32
2023-02-27T13:53:11.342Z,4.44